Time;durP1;ratioP1;P1;durP2;ratioP2;P2;SDS_P1;SDS_P2;PMS_P1;PMS_P2;Temp;Humidity;BMP_temperature;BMP_pressure;BME280_temperature;BME280_humidity;BME280_pressure;Samples;Min_cycle;Max_cycle;Signal;HPM_P1;HPM_P2
2022/09/09 00:01:08;;;;;;;7.38;6.10;;;;;;;15.73;84.03;97260.09;5027281;28;20053;-61
2022/09/09 00:04:18;;;;;;;9.00;6.28;;;;;;;15.44;85.00;97270.44;5027205;28;20068;-60
2022/09/09 00:06:53;;;;;;;10.80;6.50;;;;;;;15.42;84.80;97266.41;4967847;28;20069;-60
2022/09/09 00:09:24;;;;;;;7.40;6.03;;;;;;;15.03;85.13;97218.88;5025524;28;20053;-63
2022/09/09 00:11:56;;;;;;;8.38;5.63;;;;;;;15.45;84.98;97266.44;5027119;28;20145;-61
2022/09/09 00:14:34;;;;;;;11.40;5.55;;;;;;;15.43;85.33;97288.34;5026875;28;20586;-61
2022/09/09 00:17:08;;;;;;;9.93;5.65;;;;;;;15.38;85.46;97282.34;5026883;28;20141;-61
2022/09/09 00:19:44;;;;;;;9.18;5.32;;;;;;;15.45;85.36;97277.59;5029716;28;20128;-60
2022/09/09 00:22:20;;;;;;;6.63;5.13;;;;;;;15.46;85.33;97295.94;5045369;28;20569;-61
2022/09/09 00:24:55;;;;;;;9.55;5.28;;;;;;;15.49;85.04;97283.97;5045146;28;20148;-60
2022/09/09 00:27:31;;;;;;;6.15;5.18;;;;;;;15.39;85.30;97283.97;5046486;28;20523;-60
2022/09/09 00:30:27;;;;;;;7.90;5.70;;;;;;;15.28;86.01;97286.69;5046791;28;20375;-61
2022/09/09 00:32:59;;;;;;;9.23;5.55;;;;;;;15.29;85.94;97282.72;5046456;28;20084;-62
2022/09/09 00:35:42;;;;;;;8.07;5.43;;;;;;;15.20;86.33;97287.88;5046610;28;20118;-60
2022/09/09 00:38:24;;;;;;;17.30;7.70;;;;;;;14.87;86.65;97257.47;5046460;28;20239;-60
2022/09/09 00:41:21;;;;;;;6.75;5.78;;;;;;;15.11;87.14;97279.09;5044574;28;20140;-61
2022/09/09 00:44:30;;;;;;;7.82;6.43;;;;;;;15.08;87.17;97291.00;5045958;28;20144;-61
2022/09/09 00:47:04;;;;;;;9.52;5.88;;;;;;;15.05;87.70;97280.63;5046080;28;20830;-60
2022/09/09 00:49:54;;;;;;;7.43;5.93;;;;;;;14.96;88.31;97280.22;5045969;28;20088;-61
2022/09/09 00:52:42;;;;;;;8.27;5.95;;;;;;;14.76;87.89;97217.59;5045960;28;20135;-60
2022/09/09 00:55:20;;;;;;;7.50;5.75;;;;;;;14.91;87.87;97253.50;5046083;28;20469;-60
2022/09/09 00:57:52;;;;;;;7.35;5.63;;;;;;;15.08;87.62;97268.69;5046068;28;20143;-60
2022/09/09 01:00:22;;;;;;;7.88;5.72;;;;;;;15.07;87.99;97264.31;5046341;28;20589;-61
2022/09/09 01:03:03;;;;;;;10.75;6.03;;;;;;;15.02;87.81;97264.69;5046138;28;20148;-61
2022/09/09 01:05:53;;;;;;;6.70;5.82;;;;;;;15.00;87.74;97261.50;5045607;28;20053;-61
2022/09/09 01:09:05;;;;;;;5.97;5.38;;;;;;;14.46;88.08;97195.56;5045988;28;20545;-60
2022/09/09 01:11:53;;;;;;;6.70;5.72;;;;;;;14.85;88.42;97265.44;5044578;28;20080;-61
2022/09/09 01:14:42;;;;;;;8.63;5.80;;;;;;;14.76;88.90;97279.72;5044605;28;20056;-62
2022/09/09 01:17:23;;;;;;;9.43;6.00;;;;;;;14.82;88.94;97267.03;5046049;28;20587;-60
2022/09/09 01:19:58;;;;;;;8.75;6.80;;;;;;;14.14;88.53;97157.56;5035999;28;20547;-60
2022/09/09 01:22:45;;;;;;;9.75;6.45;;;;;;;14.90;88.27;97267.84;5006467;28;20133;-60
2022/09/09 01:25:12;;;;;;;11.00;6.35;;;;;;;14.79;88.81;97261.44;5004591;28;20141;-60
2022/09/09 01:27:42;;;;;;;10.00;5.53;;;;;;;14.68;90.01;97260.59;5004664;28;20077;-62
2022/09/09 01:30:11;;;;;;;6.90;5.57;;;;;;;14.77;89.30;97258.22;5005752;28;20050;-62
2022/09/09 01:32:47;;;;;;;6.85;5.97;;;;;;;14.47;88.75;97213.09;5005974;28;20502;-60
2022/09/09 01:35:42;;;;;;;6.47;5.15;;;;;;;14.66;89.34;97262.97;5004331;28;20093;-60
2022/09/09 01:38:09;;;;;;;8.40;5.78;;;;;;;14.12;90.00;97193.38;5005668;28;20141;-60
2022/09/09 01:40:36;;;;;;;7.03;5.57;;;;;;;13.73;90.81;97122.72;5004078;28;20096;-60
2022/09/09 01:43:04;;;;;;;6.90;5.82;;;;;;;14.46;91.65;97256.88;5005748;28;20060;-63
2022/09/09 01:45:31;;;;;;;7.50;6.30;;;;;;;14.54;91.06;97249.38;5003907;28;20513;-60
2022/09/09 01:47:59;;;;;;;7.30;5.57;;;;;;;14.63;90.83;97233.06;5005476;28;20068;-60
2022/09/09 01:50:26;;;;;;;6.68;5.35;;;;;;;14.63;90.67;97235.88;5004122;28;20085;-60
2022/09/09 01:52:57;;;;;;;6.82;5.00;;;;;;;14.46;91.21;97215.06;5005488;28;20050;-61
2022/09/09 01:55:30;;;;;;;6.28;5.13;;;;;;;14.63;90.51;97235.88;5005805;28;20145;-60
2022/09/09 01:58:09;;;;;;;6.72;5.80;;;;;;;14.58;90.89;97236.22;5005546;28;20128;-60
2022/09/09 02:00:41;;;;;;;10.80;6.65;;;;;;;14.33;90.51;97199.09;5005480;28;20059;-60
2022/09/09 02:03:28;;;;;;;13.47;7.80;;;;;;;14.45;91.32;97240.53;5004899;28;20140;-59
2022/09/09 02:06:27;;;;;;;10.35;7.45;;;;;;;14.51;90.67;97250.16;5005392;28;20149;-59
2022/09/09 02:08:57;;;;;;;12.93;8.68;;;;;;;14.44;91.37;97244.53;5004037;28;20062;-60
2022/09/09 02:11:27;;;;;;;11.57;9.27;;;;;;;14.40;92.60;97243.72;5005550;28;20085;-60
2022/09/09 02:14:00;;;;;;;12.70;10.15;;;;;;;14.47;93.03;97238.97;5003840;28;20046;-59
2022/09/09 02:16:42;;;;;;;12.55;9.90;;;;;;;14.51;93.29;97233.44;5005121;28;20220;-59
2022/09/09 02:19:25;;;;;;;10.90;9.13;;;;;;;14.43;92.40;97201.13;5005156;28;20092;-60
2022/09/09 02:21:55;;;;;;;10.13;8.27;;;;;;;14.54;91.76;97215.91;5005632;28;20058;-59
2022/09/09 02:24:22;;;;;;;8.25;6.45;;;;;;;14.43;92.06;97209.50;5005466;28;20057;-59
2022/09/09 02:26:54;;;;;;;8.50;6.18;;;;;;;14.47;91.91;97221.44;5005019;28;20060;-61
2022/09/09 02:29:31;;;;;;;8.82;6.22;;;;;;;14.39;92.67;97244.91;5004873;28;20522;-62
2022/09/09 02:32:02;;;;;;;8.70;6.57;;;;;;;14.15;92.34;97187.00;5005119;28;20145;-61
2022/09/09 02:34:33;;;;;;;11.18;6.32;;;;;;;14.34;93.08;97239.69;5005109;28;20124;-60
2022/09/09 02:37:01;;;;;;;8.90;6.63;;;;;;;14.24;92.13;97215.34;5005097;28;20093;-60
2022/09/09 02:39:27;;;;;;;7.78;6.40;;;;;;;14.36;91.81;97240.09;5005012;28;20054;-61
2022/09/09 02:41:54;;;;;;;9.98;7.43;;;;;;;14.45;91.15;97234.97;5003812;28;20046;-59
2022/09/09 02:44:20;;;;;;;13.73;8.70;;;;;;;14.15;91.86;97198.16;5004975;28;20093;-61
2022/09/09 02:47:32;;;;;;;9.27;8.23;;;;;;;14.34;92.23;97237.72;5005142;28;20237;-60
2022/09/09 02:50:25;;;;;;;8.75;7.75;;;;;;;14.38;92.27;97237.75;5004968;28;20062;-60
2022/09/09 02:53:08;;;;;;;9.55;7.93;;;;;;;14.44;92.30;97287.16;5004778;28;20111;-59
2022/09/09 02:55:48;;;;;;;11.25;8.30;;;;;;;14.43;92.05;97237.38;5003213;28;20062;-60
2022/09/09 02:58:17;;;;;;;9.20;7.13;;;;;;;14.06;91.57;97189.34;5004918;28;20060;-60
2022/09/09 03:00:49;;;;;;;11.18;7.13;;;;;;;14.30;91.93;97230.53;5004206;28;20133;-61
2022/09/09 03:03:18;;;;;;;10.70;6.50;;;;;;;14.33;92.13;97230.56;5003180;28;20076;-61
2022/09/09 03:05:45;;;;;;;7.53;5.57;;;;;;;14.15;92.69;97214.88;5002700;28;20097;-59
2022/09/09 03:08:12;;;;;;;7.90;6.05;;;;;;;14.07;92.61;97196.53;5004376;28;20112;-61
2022/09/09 03:10:39;;;;;;;9.18;5.97;;;;;;;14.33;92.24;97244.47;5004741;28;20120;-59
2022/09/09 03:13:07;;;;;;;7.18;5.55;;;;;;;14.13;92.65;97228.41;5004479;28;20085;-59
2022/09/09 03:15:34;;;;;;;8.30;6.47;;;;;;;14.10;93.21;97206.91;5006808;28;20749;-62
2022/09/09 03:18:02;;;;;;;8.18;5.95;;;;;;;13.87;92.28;97209.13;5008528;28;20057;-61
2022/09/09 03:20:30;;;;;;;10.02;6.10;;;;;;;14.33;92.16;97232.53;5027231;28;20049;-62
2022/09/09 03:22:57;;;;;;;7.28;6.03;;;;;;;14.09;92.74;97216.44;5047555;28;20525;-59
2022/09/09 03:25:24;;;;;;;10.98;6.35;;;;;;;14.22;93.18;97238.03;5047682;28;20065;-59
2022/09/09 03:27:54;;;;;;;8.45;6.30;;;;;;;14.06;94.10;97228.34;5046153;28;20053;-60
2022/09/09 03:30:25;;;;;;;8.05;6.43;;;;;;;13.79;93.59;97194.38;5046170;28;20447;-62
2022/09/09 03:32:52;;;;;;;7.40;6.38;;;;;;;13.68;93.57;97191.50;5047841;28;20088;-62
2022/09/09 03:35:19;;;;;;;10.40;7.00;;;;;;;14.07;93.65;97263.41;5047619;28;20053;-60
2022/09/09 03:37:46;;;;;;;10.65;5.97;;;;;;;13.78;93.81;97228.16;5045493;28;20156;-61
2022/09/09 03:40:13;;;;;;;10.07;6.85;;;;;;;13.61;93.21;97207.34;5047636;28;20099;-61
2022/09/09 03:42:40;;;;;;;9.93;7.18;;;;;;;13.92;93.70;97267.25;5046111;28;20052;-61
2022/09/09 03:45:10;;;;;;;11.48;7.30;;;;;;;13.87;94.04;97271.19;5047233;28;20079;-60
2022/09/09 03:47:37;;;;;;;13.10;8.18;;;;;;;13.61;93.60;97235.19;5047407;28;20060;-61
2022/09/09 03:50:08;;;;;;;9.68;7.57;;;;;;;13.96;93.29;97282.03;5047090;28;20144;-62
2022/09/09 03:52:39;;;;;;;10.80;7.35;;;;;;;13.24;93.69;97184.38;5047208;28;20056;-61
2022/09/09 03:55:06;;;;;;;10.40;7.55;;;;;;;13.91;93.68;97276.81;5047251;28;20065;-60
2022/09/09 03:57:34;;;;;;;8.65;6.97;;;;;;;13.27;93.85;97181.66;5045886;28;20045;-60
2022/09/09 04:00:06;;;;;;;10.60;7.40;;;;;;;13.97;93.57;97276.06;5045598;28;20638;-59
2022/09/09 04:02:33;;;;;;;8.07;6.72;;;;;;;13.96;94.78;97273.66;5045922;28;20103;-60
2022/09/09 04:05:00;;;;;;;8.77;6.78;;;;;;;13.97;94.87;97269.69;5046940;28;20103;-62
2022/09/09 04:07:27;;;;;;;13.60;6.88;;;;;;;13.94;94.96;97246.16;5046602;28;20081;-61
2022/09/09 04:09:54;;;;;;;13.27;7.30;;;;;;;14.01;95.67;97254.59;5046995;28;20132;-62
2022/09/09 04:12:22;;;;;;;13.60;7.25;;;;;;;13.70;95.31;97199.47;5046820;28;20088;-60
2022/09/09 04:14:48;;;;;;;13.00;6.55;;;;;;;14.12;94.88;97265.78;5046981;28;20508;-62
2022/09/09 04:17:15;;;;;;;8.68;6.22;;;;;;;14.17;92.76;97273.78;5047004;28;20104;-61
2022/09/09 04:19:42;;;;;;;10.60;7.20;;;;;;;13.84;94.25;97266.41;5044147;28;20128;-61
2022/09/09 04:22:09;;;;;;;13.63;8.75;;;;;;;13.82;94.94;97265.97;5026927;28;20049;-60
2022/09/09 04:24:35;;;;;;;10.18;8.05;;;;;;;13.85;95.17;97244.94;5026723;28;20528;-61
2022/09/09 04:27:02;;;;;;;13.63;7.85;;;;;;;14.04;93.82;97247.44;5026320;28;20132;-60
2022/09/09 04:29:29;;;;;;;14.07;8.32;;;;;;;14.27;93.31;97261.97;5026323;28;20137;-61
2022/09/09 04:31:55;;;;;;;19.25;9.73;;;;;;;14.26;93.05;97275.09;5025083;28;20232;-60
2022/09/09 04:34:22;;;;;;;16.60;8.80;;;;;;;13.95;93.46;97217.16;5029999;28;20056;-60
2022/09/09 04:36:49;;;;;;;10.52;6.57;;;;;;;14.29;93.72;97262.38;5023912;28;20091;-60
2022/09/09 04:39:15;;;;;;;13.48;6.25;;;;;;;14.35;93.79;97244.88;5024018;28;20085;-61
2022/09/09 04:41:42;;;;;;;8.95;6.00;;;;;;;14.33;92.87;97238.09;5022979;28;20148;-60
2022/09/09 04:44:09;;;;;;;10.77;6.20;;;;;;;14.65;92.71;97275.31;5022881;28;20081;-62
2022/09/09 04:46:36;;;;;;;8.70;5.50;;;;;;;14.76;91.38;97276.16;5026206;28;20049;-60
2022/09/09 04:49:03;;;;;;;11.27;5.35;;;;;;;14.66;89.76;97235.06;5026641;28;20205;-60
2022/09/09 04:51:31;;;;;;;12.25;5.38;;;;;;;15.04;88.92;97262.31;5026544;28;20081;-60
2022/09/09 04:53:57;;;;;;;9.00;4.85;;;;;;;14.86;88.92;97236.34;5026334;28;20141;-61
2022/09/09 04:56:26;;;;;;;11.25;5.75;;;;;;;15.14;88.58;97256.75;5025072;28;20129;-61
2022/09/09 04:58:54;;;;;;;10.82;6.18;;;;;;;15.27;88.01;97262.75;5026384;28;20468;-60
2022/09/09 05:01:22;;;;;;;19.67;5.88;;;;;;;14.61;88.35;97176.91;5021359;28;20073;-60
2022/09/09 05:03:48;;;;;;;19.52;6.40;;;;;;;15.38;87.39;97248.84;5004818;28;20060;-60
2022/09/09 05:06:18;;;;;;;18.55;6.55;;;;;;;15.70;86.32;97261.66;5004461;28;20540;-61
2022/09/09 05:08:45;;;;;;;19.20;6.35;;;;;;;15.81;85.70;97261.66;5005816;28;20058;-59
2022/09/09 05:11:24;;;;;;;8.77;6.15;;;;;;;15.95;85.57;97259.66;5006278;28;20050;-60
2022/09/09 05:13:51;;;;;;;7.88;4.70;;;;;;;16.07;84.39;97261.25;5006261;28;20062;-60
2022/09/09 05:16:19;;;;;;;9.48;4.68;;;;;;;16.12;84.49;97250.44;5004777;28;20128;-60
2022/09/09 05:18:47;;;;;;;8.23;5.45;;;;;;;16.25;84.58;97243.25;5005919;28;20061;-61
2022/09/09 05:21:15;;;;;;;9.55;5.40;;;;;;;16.48;83.42;97245.63;5035450;28;20110;-61
2022/09/09 05:23:41;;;;;;;8.27;5.28;;;;;;;16.12;82.36;97171.41;5044043;28;20559;-60
2022/09/09 05:26:19;;;;;;;10.23;5.55;;;;;;;16.40;81.84;97188.91;5045161;28;20163;-61
2022/09/09 05:28:46;;;;;;;7.82;4.70;;;;;;;16.46;81.67;97209.69;5045129;28;20059;-61
2022/09/09 05:31:15;;;;;;;9.10;5.28;;;;;;;16.63;81.66;97204.44;5045257;28;20099;-61
2022/09/09 05:33:45;;;;;;;7.75;5.35;;;;;;;17.05;80.59;97237.81;5045236;28;20135;-60
2022/09/09 05:36:14;;;;;;;9.68;5.43;;;;;;;17.22;79.77;97225.72;5045690;28;20075;-62
2022/09/09 05:38:41;;;;;;;10.52;5.15;;;;;;;15.82;78.48;96990.28;5043008;28;20595;-60
2022/09/09 05:41:10;;;;;;;18.23;5.57;;;;;;;17.60;78.22;97227.47;5044727;28;20083;-61
2022/09/09 05:43:38;;;;;;;15.95;6.05;;;;;;;17.81;77.61;97232.94;5044979;28;20536;-60
2022/09/09 05:46:11;;;;;;;14.73;5.18;;;;;;;18.04;76.34;97231.13;5044806;28;20056;-63
2022/09/09 05:48:40;;;;;;;10.50;5.85;;;;;;;18.24;75.30;97234.13;5044738;28;20059;-61
2022/09/09 05:51:12;;;;;;;14.73;5.80;;;;;;;18.41;74.44;97241.59;5045161;28;20080;-60
2022/09/09 05:53:39;;;;;;;12.70;5.85;;;;;;;18.57;73.94;97241.84;5045110;28;20056;-60
2022/09/09 05:56:11;;;;;;;15.48;5.47;;;;;;;18.70;73.31;97242.88;5043632;28;20719;-60
2022/09/09 05:58:38;;;;;;;12.75;5.75;;;;;;;18.88;72.59;97240.66;5043148;28;20059;-60
2022/09/09 06:01:06;;;;;;;14.50;5.30;;;;;;;18.90;72.51;97238.22;5044897;28;20057;-60
2022/09/09 06:03:38;;;;;;;9.05;6.10;;;;;;;18.65;71.91;97175.97;5043627;28;20060;-60
2022/09/09 06:06:07;;;;;;;15.98;7.93;;;;;;;19.29;71.15;97235.72;5044824;28;20080;-61
2022/09/09 06:08:39;;;;;;;12.52;7.22;;;;;;;19.13;70.49;97195.38;5044695;28;20139;-61
2022/09/09 06:11:08;;;;;;;12.88;5.60;;;;;;;17.74;69.55;96941.56;5031334;28;20136;-63
2022/09/09 06:13:38;;;;;;;9.75;5.47;;;;;;;19.69;69.57;97227.50;5015240;28;20095;-60
2022/09/09 06:16:08;;;;;;;7.95;5.90;;;;;;;19.85;68.95;97220.03;5015961;28;20053;-65
2022/09/09 06:18:35;;;;;;;13.60;6.97;;;;;;;20.12;67.61;97212.28;5025028;28;20068;-63
2022/09/09 06:21:04;;;;;;;9.27;5.55;;;;;;;19.97;67.54;97170.78;5006403;28;20050;-61
2022/09/09 06:23:31;;;;;;;10.30;5.90;;;;;;;20.27;67.73;97213.66;5004768;28;20092;-62
2022/09/09 06:26:10;;;;;;;7.55;5.10;;;;;;;20.42;66.33;97183.25;5017714;28;20057;-62
2022/09/09 06:28:37;;;;;;;10.68;4.82;;;;;;;20.55;64.70;97184.97;5023881;28;20045;-65
2022/09/09 06:31:07;;;;;;;8.43;6.63;;;;;;;20.83;63.68;97208.97;5036272;28;20092;-63
2022/09/09 06:33:36;;;;;;;9.18;5.53;;;;;;;20.47;63.58;97137.72;5044212;28;20075;-62
2022/09/09 06:36:03;;;;;;;7.90;4.90;;;;;;;20.98;64.05;97216.72;5024569;28;20489;-60
2022/09/09 06:38:30;;;;;;;5.68;4.90;;;;;;;20.36;64.10;97087.28;5042572;28;20063;-62
2022/09/09 06:40:58;;;;;;;10.63;4.97;;;;;;;21.26;62.74;97200.44;5010726;28;20475;-64
2022/09/09 06:43:26;;;;;;;10.30;6.22;;;;;;;21.46;62.11;97198.34;5003916;28;20089;-61
2022/09/09 06:46:00;;;;;;;13.93;5.55;;;;;;;21.57;60.90;97198.88;5003924;28;20093;-65
2022/09/09 06:48:30;;;;;;;12.48;5.40;;;;;;;21.69;61.31;97201.81;5007128;28;20085;-65
2022/09/09 06:51:11;;;;;;;13.00;5.07;;;;;;;21.66;59.43;97216.78;5024424;28;20077;-70
2022/09/09 06:53:38;;;;;;;6.47;5.25;;;;;;;21.35;58.69;97176.06;5022880;28;20145;-62
2022/09/09 06:56:11;;;;;;;13.75;4.82;;;;;;;21.85;56.67;97210.31;5007805;28;20458;-67
2022/09/09 06:58:44;;;;;;;7.50;4.15;;;;;;;22.03;56.78;97210.69;5008542;28;20050;-63
2022/09/09 07:01:16;;;;;;;4.07;3.55;;;;;;;21.44;54.17;97071.94;5006801;28;20050;-62
2022/09/09 07:03:47;;;;;;;8.00;3.60;;;;;;;22.00;55.21;97214.34;5006513;28;20522;-61
2022/09/09 07:06:17;;;;;;;8.05;4.63;;;;;;;22.27;56.52;97220.50;5010971;28;20496;-62
2022/09/09 07:08:43;;;;;;;9.07;4.38;;;;;;;22.07;56.57;97204.91;5010139;28;20049;-62
2022/09/09 07:11:25;;;;;;;6.13;3.88;;;;;;;20.69;56.00;96939.00;5007942;28;20139;-67
2022/09/09 07:13:52;;;;;;;9.23;4.45;;;;;;;22.61;55.61;97216.41;5007753;28;20152;-72
2022/09/09 07:16:23;;;;;;;7.85;4.60;;;;;;;22.67;55.72;97220.31;5009283;28;20082;-66
2022/09/09 07:18:51;;;;;;;6.50;4.15;;;;;;;22.17;54.59;97122.81;5010032;28;20501;-62
2022/09/09 07:21:19;;;;;;;8.60;5.60;;;;;;;22.60;55.53;97186.59;5007289;28;20081;-64
2022/09/09 07:23:45;;;;;;;7.45;4.43;;;;;;;22.82;55.87;97216.63;5010464;28;20580;-60
2022/09/09 07:26:15;;;;;;;7.15;5.05;;;;;;;21.14;55.09;96968.03;5023010;28;20158;-59
2022/09/09 07:28:42;;;;;;;10.20;5.50;;;;;;;22.85;55.14;97226.22;5026171;28;20551;-59
2022/09/09 07:31:18;;;;;;;8.15;4.38;;;;;;;23.03;54.94;97220.88;5027175;28;20053;-64
2022/09/09 07:33:45;;;;;;;6.53;4.13;;;;;;;20.76;55.79;97026.88;5027013;28;20054;-70
2022/09/09 07:36:23;;;;;;;6.55;4.00;;;;;;;21.95;56.55;97169.78;5013786;28;20145;-62
2022/09/09 07:38:56;;;;;;;8.88;4.40;;;;;;;22.90;54.55;97228.53;5023638;28;20065;-60
2022/09/09 07:41:31;;;;;;;6.25;4.43;;;;;;;23.18;53.88;97233.34;5021357;28;20128;-60
2022/09/09 07:43:58;;;;;;;5.95;3.92;;;;;;;23.39;53.00;97221.44;5007311;28;20054;-60
2022/09/09 07:46:26;;;;;;;6.15;4.07;;;;;;;22.96;52.59;97184.34;5006944;28;20061;-61
2022/09/09 07:48:55;;;;;;;5.97;3.78;;;;;;;23.51;52.33;97220.66;5006932;28;20138;-61
2022/09/09 07:51:34;;;;;;;6.07;4.03;;;;;;;21.87;52.42;96993.47;5007081;28;20045;-60
2022/09/09 07:54:04;;;;;;;5.07;4.25;;;;;;;23.46;52.38;97192.91;5006735;28;20431;-69
2022/09/09 07:56:32;;;;;;;6.72;4.18;;;;;;;23.75;50.89;97222.72;5005568;28;20131;-63
2022/09/09 07:59:00;;;;;;;9.82;4.50;;;;;;;23.57;50.93;97165.09;5012214;28;20057;-67
2022/09/09 08:01:38;;;;;;;5.72;4.35;;;;;;;24.13;49.95;97208.53;5023999;28;20396;-63
2022/09/09 08:04:15;;;;;;;3.75;3.38;;;;;;;23.93;48.72;97125.91;5026528;28;20141;-63
2022/09/09 08:06:44;;;;;;;10.00;4.70;;;;;;;23.82;49.47;97201.88;5020277;28;20143;-64
2022/09/09 08:09:11;;;;;;;10.55;5.15;;;;;;;23.78;49.98;97193.50;5015546;28;20516;-60
2022/09/09 08:11:39;;;;;;;7.43;4.05;;;;;;;24.17;48.72;97174.47;5017403;28;20050;-64
2022/09/09 08:14:07;;;;;;;7.65;4.38;;;;;;;24.51;48.12;97178.09;5018142;28;20064;-64
2022/09/09 08:16:37;;;;;;;18.38;10.23;;;;;;;24.32;47.53;97079.25;5023721;28;20132;-64
2022/09/09 08:19:06;;;;;;;9.85;5.90;;;;;;;24.72;47.02;97132.00;5015335;28;20468;-59
2022/09/09 08:21:36;;;;;;;9.43;6.65;;;;;;;25.29;46.62;97154.09;5016452;28;20579;-60
2022/09/09 08:24:04;;;;;;;10.70;4.05;;;;;;;25.46;46.02;97134.03;5016144;28;20045;-59
2022/09/09 08:26:37;;;;;;;10.20;6.32;;;;;;;25.14;46.01;97172.91;5011342;28;20057;-65
2022/09/09 08:29:06;;;;;;;6.13;4.00;;;;;;;24.88;46.04;97072.25;5016026;28;20553;-60
2022/09/09 08:31:38;;;;;;;6.70;4.35;;;;;;;25.76;45.65;97170.88;5010529;28;20053;-60
2022/09/09 08:34:06;;;;;;;7.15;3.72;;;;;;;25.76;45.72;97158.72;5006417;28;20053;-71
2022/09/09 08:36:36;;;;;;;14.57;10.43;;;;;;;25.48;46.70;97159.88;5014228;28;20054;-60
2022/09/09 08:39:05;;;;;;;7.68;5.40;;;;;;;25.51;46.21;97148.41;5006036;28;20058;-61
2022/09/09 08:42:00;;;;;;;5.55;3.80;;;;;;;25.54;46.18;97175.03;5013339;28;20056;-63
2022/09/09 08:44:56;;;;;;;5.70;4.28;;;;;;;25.53;46.37;97150.78;5006720;28;20062;-63
2022/09/09 08:47:39;;;;;;;9.80;5.25;;;;;;;25.50;46.37;97168.72;5008240;28;20108;-64
2022/09/09 08:50:27;;;;;;;9.10;4.55;;;;;;;25.07;47.51;97163.91;5009263;28;20046;-66
2022/09/09 08:53:16;;;;;;;6.10;4.63;;;;;;;25.30;47.31;97157.72;5013706;28;20064;-65
2022/09/09 08:55:52;;;;;;;5.88;4.72;;;;;;;25.56;46.87;97144.94;5015233;28;20057;-69
2022/09/09 08:58:22;;;;;;;6.40;4.20;;;;;;;25.83;46.24;97152.78;5022854;28;20140;-62
2022/09/09 09:01:08;;;;;;;8.95;4.68;;;;;;;24.72;46.26;96990.31;5014605;28;20081;-63
2022/09/09 09:03:35;;;;;;;10.13;4.50;;;;;;;25.99;46.04;97149.63;5021117;28;20096;-63
2022/09/09 09:06:12;;;;;;;12.60;5.22;;;;;;;25.69;46.08;97085.25;5015395;28;20111;-65
2022/09/09 09:08:51;;;;;;;8.35;4.40;;;;;;;25.89;46.12;97148.81;5011213;28;20611;-62
2022/09/09 09:11:18;;;;;;;5.63;3.97;;;;;;;25.32;46.64;97107.75;5021686;28;20085;-61
2022/09/09 09:13:53;;;;;;;5.10;4.50;;;;;;;25.95;46.25;97137.66;5010744;28;20128;-62
2022/09/09 09:16:33;;;;;;;5.65;4.63;;;;;;;26.02;45.48;97098.41;5008032;28;20128;-63
2022/09/09 09:19:00;;;;;;;6.70;5.35;;;;;;;26.14;45.57;97102.38;5006132;28;20054;-62
2022/09/09 09:21:44;;;;;;;5.30;4.80;;;;;;;26.55;45.48;97136.66;5005644;28;20088;-61
2022/09/09 09:24:16;;;;;;;;;;;;;;;26.87;44.77;97134.44;5013501;28;20049;-60
2022/09/09 09:26:47;;;;;;;8.80;5.80;;;;;;;25.03;45.37;96925.09;5016021;28;19932;-70
2022/09/09 09:29:17;;;;;;;8.10;5.20;;;;;;;26.50;45.44;97110.91;5004375;28;20128;-64
2022/09/09 09:31:55;;;;;;;4.60;4.13;;;;;;;26.52;45.55;97119.75;5004366;28;20054;-62
2022/09/09 09:34:24;;;;;;;6.50;5.25;;;;;;;26.66;44.87;97107.78;5024473;28;20142;-64
2022/09/09 09:36:56;;;;;;;6.95;4.43;;;;;;;26.74;45.38;97120.41;5017632;28;20041;-61
2022/09/09 09:39:36;;;;;;;4.60;4.10;;;;;;;25.92;45.51;97020.16;5005121;28;20053;-63
2022/09/09 09:42:22;;;;;;;7.03;4.13;;;;;;;26.08;44.95;96980.09;5005599;28;20077;-65
2022/09/09 09:44:49;;;;;;;5.35;4.75;;;;;;;27.25;44.56;97115.53;5005176;28;20124;-61
2022/09/09 09:47:21;;;;;;;8.65;5.00;;;;;;;26.89;44.91;97124.16;5011295;28;20053;-62
2022/09/09 09:49:59;;;;;;;4.15;3.80;;;;;;;26.60;45.52;97098.28;5022751;28;20097;-61
2022/09/09 09:52:29;;;;;;;6.63;4.07;;;;;;;27.17;44.70;97114.31;5024098;28;20563;-61
2022/09/09 09:54:59;;;;;;;6.32;4.75;;;;;;;27.17;45.06;97094.41;5022868;28;20617;-59
2022/09/09 09:57:34;;;;;;;11.73;5.93;;;;;;;25.40;44.87;96849.41;5020027;28;20115;-59
2022/09/09 10:00:13;;;;;;;6.90;5.43;;;;;;;26.72;45.01;96975.13;5009147;28;20046;-64
2022/09/09 10:02:43;;;;;;;6.60;5.25;;;;;;;27.24;44.50;97017.25;5003555;28;20053;-60
2022/09/09 10:05:15;;;;;;;6.32;4.57;;;;;;;27.96;44.14;97093.75;5003384;28;20057;-60
2022/09/09 10:07:45;;;;;;;5.40;4.43;;;;;;;27.64;43.78;97012.00;5008378;28;20065;-64
2022/09/09 10:10:20;;;;;;;5.32;4.45;;;;;;;28.16;43.70;97081.75;5016264;28;20049;-60
2022/09/09 10:12:50;;;;;;;5.53;4.47;;;;;;;28.20;43.89;97090.88;5019639;28;20073;-59
2022/09/09 10:15:41;;;;;;;6.32;4.45;;;;;;;28.12;44.04;97081.94;5005821;28;20147;-60
2022/09/09 10:18:45;;;;;;;5.95;4.28;;;;;;;28.35;43.85;97083.19;5011105;28;20053;-72
2022/09/09 10:21:58;;;;;;;5.00;4.47;;;;;;;27.32;44.14;96960.81;5038643;28;20139;-61
2022/09/09 10:24:49;;;;;;;8.32;4.88;;;;;;;28.17;43.77;97082.56;5004477;28;20140;-67
2022/09/09 10:27:39;;;;;;;7.05;5.13;;;;;;;28.29;43.85;97072.94;5017150;28;20049;-63
2022/09/09 10:30:24;;;;;;;11.75;4.43;;;;;;;28.47;43.42;97079.28;5018786;28;20158;-63
2022/09/09 10:33:09;;;;;;;6.45;4.43;;;;;;;28.47;43.45;97072.81;5024144;28;20053;-58
2022/09/09 10:36:02;;;;;;;8.10;5.63;;;;;;;28.83;43.14;97067.59;5023797;28;20119;-59
2022/09/09 10:38:52;;;;;;;5.88;4.82;;;;;;;28.82;43.01;97053.78;5024182;28;20053;-58
2022/09/09 10:41:30;;;;;;;10.75;4.72;;;;;;;28.35;43.91;97053.91;5022616;28;20089;-58
2022/09/09 10:44:18;;;;;;;6.97;5.10;;;;;;;28.53;43.18;97059.47;5022588;28;20123;-58
2022/09/09 10:47:04;;;;;;;12.75;6.97;;;;;;;28.84;42.92;97071.19;5023774;28;20140;-59
2022/09/09 10:49:33;;;;;;;7.18;5.68;;;;;;;27.96;44.37;97062.41;5023960;28;20061;-58
2022/09/09 10:52:23;;;;;;;7.80;5.00;;;;;;;27.92;44.61;97067.53;5024108;28;20069;-59
2022/09/09 10:54:56;;;;;;;6.28;5.18;;;;;;;27.78;44.39;97062.53;5024393;28;20049;-59
2022/09/09 10:57:36;;;;;;;8.25;5.63;;;;;;;27.65;44.17;96996.47;5022517;28;20136;-59
2022/09/09 11:00:24;;;;;;;6.78;5.15;;;;;;;28.29;43.83;97050.94;5024185;28;20079;-58
2022/09/09 11:03:02;;;;;;;9.63;6.65;;;;;;;28.39;43.11;97008.91;5024000;28;20056;-58
2022/09/09 11:05:49;;;;;;;5.80;4.85;;;;;;;27.87;43.17;96988.41;5022645;28;20088;-58
2022/09/09 11:08:21;;;;;;;6.53;5.90;;;;;;;28.38;43.17;97052.91;5023859;28;20052;-59
2022/09/09 11:11:03;;;;;;;10.05;5.03;;;;;;;28.69;43.11;97044.75;5023317;28;20112;-59
2022/09/09 11:13:43;;;;;;;5.78;5.25;;;;;;;28.25;43.97;97049.56;5022212;28;20053;-59
2022/09/09 11:16:41;;;;;;;7.95;6.28;;;;;;;28.76;43.53;97032.94;5023703;28;20148;-58
2022/09/09 11:19:30;;;;;;;6.47;5.22;;;;;;;29.12;42.08;97036.22;5009318;28;20570;-59
2022/09/09 11:21:58;;;;;;;9.23;4.60;;;;;;;29.09;41.76;97027.84;5028828;28;20084;-58
2022/09/09 11:24:52;;;;;;;7.97;5.18;;;;;;;29.40;42.02;97030.97;5043671;28;20519;-66
2022/09/09 11:27:30;;;;;;;9.32;5.72;;;;;;;29.70;41.37;97026.75;5042938;28;20106;-64
2022/09/09 11:30:15;;;;;;;15.95;9.85;;;;;;;29.44;41.95;97025.81;5043317;28;20169;-64
2022/09/09 11:33:17;;;;;;;5.30;4.68;;;;;;;29.83;40.85;97007.19;5043215;28;20048;-58
2022/09/09 11:36:02;;;;;;;5.60;4.88;;;;;;;29.74;41.25;97009.41;5043544;28;20329;-59
2022/09/09 11:38:48;;;;;;;7.50;4.90;;;;;;;29.91;40.97;96996.13;5047180;28;20063;-57
2022/09/09 11:41:15;;;;;;;6.18;4.75;;;;;;;30.22;40.64;97022.81;5046617;28;20049;-59
2022/09/09 11:43:53;;;;;;;6.97;4.32;;;;;;;29.18;41.80;97002.06;5045483;28;20140;-58
2022/09/09 11:46:35;;;;;;;5.40;4.55;;;;;;;29.56;41.18;96999.00;5046555;28;20136;-58
2022/09/09 11:49:05;;;;;;;9.23;4.78;;;;;;;29.39;40.96;96920.88;5046453;28;20061;-63
2022/09/09 11:51:33;;;;;;;7.85;5.32;;;;;;;29.21;42.23;96983.94;5046298;28;20049;-65
2022/09/09 11:54:29;;;;;;;9.35;4.85;;;;;;;28.91;42.15;96948.16;5046198;28;20793;-59
2022/09/09 11:56:56;;;;;;;5.82;5.30;;;;;;;29.39;42.25;96983.69;5045337;28;20454;-58
2022/09/09 11:59:31;;;;;;;6.30;4.60;;;;;;;29.87;41.04;96984.91;5046513;28;20506;-58
2022/09/09 12:02:18;;;;;;;7.88;5.30;;;;;;;29.48;41.14;96929.34;5046296;28;20057;-59
2022/09/09 12:05:12;;;;;;;7.13;4.88;;;;;;;30.38;40.34;96972.81;5044785;28;20053;-58